createdAt,value
2018-05-25T00:01:12.552Z,75.50
2018-05-25T00:03:40.794Z,75.69
2018-05-25T00:06:09.803Z,75.13
2018-05-25T00:08:38.898Z,75.17
2018-05-25T00:11:07.909Z,75.47
2018-05-25T00:13:36.150Z,74.94
2018-05-25T00:16:05.162Z,74.10
2018-05-25T00:18:33.409Z,74.69
2018-05-25T00:21:01.643Z,74.93
2018-05-25T00:23:29.894Z,75.59
2018-05-25T00:25:58.136Z,76.12
2018-05-25T00:28:26.543Z,75.73
2018-05-25T00:30:54.782Z,76.29
2018-05-25T00:33:23.019Z,76.48
2018-05-25T00:35:51.272Z,76.68
2018-05-25T00:38:19.501Z,76.95
2018-05-25T00:40:47.740Z,76.91
2018-05-25T00:43:15.977Z,77.02
2018-05-25T00:45:44.979Z,77.14
2018-05-25T00:48:14.000Z,77.29
2018-05-25T00:50:42.229Z,77.10
2018-05-25T00:53:10.462Z,76.47
2018-05-25T00:55:40.437Z,76.55
2018-05-25T00:58:09.429Z,76.65
2018-05-25T01:00:38.838Z,76.75
2018-05-25T01:03:07.847Z,76.05
2018-05-25T01:05:36.090Z,75.99
2018-05-25T01:08:05.118Z,76.38
2018-05-25T01:10:33.354Z,76.32
2018-05-25T01:13:02.221Z,74.74
2018-05-25T01:15:30.478Z,75.13
2018-05-25T01:17:58.711Z,75.39
2018-05-25T01:20:27.795Z,75.81
2018-05-25T01:22:56.042Z,76.52
2018-05-25T01:25:24.290Z,76.70
2018-05-25T01:27:52.535Z,76.98
2018-05-25T01:30:21.536Z,77.05
2018-05-25T01:32:50.427Z,76.77
2018-05-25T01:35:18.675Z,76.86
2018-05-25T01:37:46.898Z,77.05
2018-05-25T01:40:15.141Z,77.48
2018-05-25T01:42:44.143Z,77.36
2018-05-25T01:45:12.382Z,77.16
2018-05-25T01:47:40.627Z,77.35
2018-05-25T01:50:08.869Z,77.35
2018-05-25T01:52:37.884Z,77.37
2018-05-25T01:55:06.114Z,77.16
2018-05-25T01:57:34.357Z,77.37
2018-05-25T02:00:02.593Z,77.52
2018-05-25T02:02:30.828Z,77.44
2018-05-25T02:04:59.075Z,77.25
2018-05-25T02:07:27.321Z,77.56
2018-05-25T02:09:56.331Z,77.39
2018-05-25T02:12:24.574Z,77.45
2018-05-25T02:14:53.579Z,77.56
2018-05-25T02:17:22.594Z,77.52
2018-05-25T02:19:50.846Z,77.20
2018-05-25T02:22:19.086Z,77.30
2018-05-25T02:24:47.325Z,77.61
2018-05-25T02:27:15.561Z,77.52
2018-05-25T02:29:44.581Z,76.88
2018-05-25T02:32:12.818Z,77.49
2018-05-25T02:34:41.057Z,77.52
2018-05-25T02:37:09.313Z,77.35
2018-05-25T02:39:37.546Z,77.64
2018-05-25T02:42:06.154Z,77.51
2018-05-25T02:44:34.390Z,77.76
2018-05-25T02:47:02.629Z,77.67
2018-05-25T02:49:30.882Z,77.56
2018-05-25T02:51:59.114Z,77.63
2018-05-25T02:54:28.118Z,77.77
2018-05-25T02:56:56.367Z,77.97
2018-05-25T02:59:24.812Z,77.62
2018-05-25T03:01:53.042Z,76.95
2018-05-25T03:04:21.278Z,77.32
2018-05-25T03:06:49.530Z,77.48
2018-05-25T03:09:17.769Z,77.63
2018-05-25T03:11:46.035Z,77.49
2018-05-25T03:14:14.264Z,77.50
2018-05-25T03:16:42.499Z,77.73
2018-05-25T03:19:11.007Z,77.57
2018-05-25T03:21:40.005Z,77.42
2018-05-25T03:24:08.246Z,77.95
2018-05-25T03:26:36.495Z,77.90
2018-05-25T03:29:04.726Z,77.84
2018-05-25T03:31:34.042Z,77.91
2018-05-25T03:34:02.282Z,77.71
2018-05-25T03:36:30.514Z,77.48
2018-05-25T03:38:58.778Z,77.63
2018-05-25T03:41:27.016Z,77.44
2018-05-25T03:43:56.029Z,77.63
2018-05-25T03:46:24.269Z,77.47
2018-05-25T03:48:52.519Z,77.15
2018-05-25T03:51:21.157Z,77.22
2018-05-25T03:53:50.156Z,77.18
2018-05-25T03:56:18.398Z,77.71
2018-05-25T03:59:04.751Z,77.68
2018-05-25T04:01:50.822Z,77.99
2018-05-25T04:04:19.165Z,77.60
2018-05-25T04:06:47.407Z,77.95
2018-05-25T04:09:15.642Z,77.54
2018-05-25T04:11:44.670Z,77.22
2018-05-25T04:14:12.920Z,77.05
2018-05-25T04:16:42.230Z,77.04
2018-05-25T04:19:10.468Z,77.54
2018-05-25T04:21:38.705Z,77.53
2018-05-25T04:24:07.359Z,77.19
2018-05-25T04:26:35.590Z,77.51
2018-05-25T04:29:03.847Z,77.74
2018-05-25T04:31:32.489Z,77.83
2018-05-25T04:34:00.724Z,77.98
2018-05-25T04:36:28.954Z,78.17
2018-05-25T04:38:57.197Z,78.27
2018-05-25T04:41:26.202Z,78.46
2018-05-25T04:43:55.614Z,78.31
2018-05-25T04:46:23.845Z,78.60
2018-05-25T04:48:52.078Z,78.01
2018-05-25T04:51:20.546Z,78.64
2018-05-25T04:53:49.693Z,78.53
2018-05-25T04:56:17.934Z,78.82
2018-05-25T04:58:46.190Z,78.86
2018-05-25T05:01:15.180Z,78.80
2018-05-25T05:03:44.173Z,78.83
2018-05-25T05:06:13.188Z,78.99
2018-05-25T05:08:41.422Z,78.44
2018-05-25T05:11:09.674Z,78.53
2018-05-25T05:13:37.921Z,78.59
2018-05-25T05:16:06.174Z,78.50
2018-05-25T05:18:34.406Z,77.82
2018-05-25T05:21:02.664Z,77.24
2018-05-25T05:23:30.903Z,76.99
2018-05-25T05:25:59.134Z,76.66
2018-05-25T05:28:27.387Z,76.40
2018-05-25T05:30:55.627Z,76.50
2018-05-25T05:33:23.858Z,76.43
2018-05-25T05:35:53.622Z,76.10
2018-05-25T05:38:22.185Z,76.30
2018-05-25T05:40:51.233Z,76.95
2018-05-25T05:43:19.430Z,76.90
2018-05-25T05:45:47.679Z,76.61
2018-05-25T05:48:15.910Z,75.96
2018-05-25T05:50:44.914Z,75.68
2018-05-25T05:53:13.178Z,75.93
2018-05-25T05:55:42.178Z,76.57
2018-05-25T05:58:11.181Z,76.69
2018-05-25T06:00:39.410Z,76.82
2018-05-25T06:03:07.641Z,76.53
2018-05-25T06:05:35.894Z,77.14
2018-05-25T06:08:04.134Z,76.12
2018-05-25T06:10:32.755Z,74.93
2018-05-25T06:13:01.132Z,75.28
2018-05-25T06:15:30.122Z,75.60
2018-05-25T06:17:59.142Z,75.62
2018-05-25T06:20:27.372Z,75.30
2018-05-25T06:22:55.667Z,74.84
2018-05-25T06:25:24.702Z,75.48
2018-05-25T06:27:53.352Z,74.84
2018-05-25T06:30:21.585Z,75.55
2018-05-25T06:32:49.819Z,75.82
2018-05-25T06:35:18.073Z,75.32
2018-05-25T06:37:47.094Z,74.58
2018-05-25T06:40:15.334Z,74.76
2018-05-25T06:42:44.343Z,75.40
2018-05-25T06:45:12.595Z,75.32
2018-05-25T06:47:40.830Z,74.80
2018-05-25T06:50:09.066Z,74.42
2018-05-25T06:52:37.314Z,73.71
2018-05-25T06:55:05.553Z,73.84
2018-05-25T06:57:33.784Z,72.43
2018-05-25T07:00:02.827Z,70.93
2018-05-25T07:02:31.174Z,71.75
2018-05-25T07:04:59.405Z,71.42
2018-05-25T07:07:27.642Z,70.90
2018-05-25T07:09:55.886Z,71.14
2018-05-25T07:12:24.278Z,71.28
2018-05-25T07:14:52.518Z,70.89
2018-05-25T07:17:20.770Z,70.68
2018-05-25T07:19:49.019Z,71.61
2018-05-25T07:22:17.266Z,70.80
2018-05-25T07:24:46.262Z,72.66
2018-05-25T07:27:14.518Z,69.41
2018-05-25T07:29:42.751Z,69.08
2018-05-25T07:32:10.984Z,69.45
2018-05-25T07:34:39.994Z,68.11
2018-05-25T07:37:08.225Z,67.86
2018-05-25T07:39:37.047Z,69.31
2018-05-25T07:42:05.345Z,70.30
2018-05-25T07:44:33.569Z,70.46
2018-05-25T07:47:01.813Z,69.07
2018-05-25T07:49:30.045Z,69.63
2018-05-25T07:51:59.062Z,69.27
2018-05-25T07:54:27.402Z,68.03
2018-05-25T07:56:56.327Z,68.20
2018-05-25T07:59:24.555Z,68.20
2018-05-25T08:01:52.785Z,67.08
2018-05-25T08:04:21.035Z,66.59
2018-05-25T08:06:50.037Z,65.65
2018-05-25T08:09:18.277Z,66.65
2018-05-25T08:11:46.531Z,66.53
2018-05-25T08:14:14.782Z,65.59
2018-05-25T08:16:43.019Z,67.12
2018-05-25T08:19:12.041Z,65.87
2018-05-25T08:21:40.324Z,64.12
2018-05-25T08:24:08.527Z,62.94
2018-05-25T08:26:36.757Z,63.97
2018-05-25T08:29:05.329Z,61.18
2018-05-25T08:31:34.340Z,62.81
2018-05-25T08:34:02.581Z,63.60
2018-05-25T08:36:31.603Z,61.21
2018-05-25T08:38:59.831Z,61.52
2018-05-25T08:41:29.598Z,62.98
2018-05-25T08:43:57.834Z,62.26
2018-05-25T08:46:26.071Z,61.18
2018-05-25T08:48:54.316Z,59.30
2018-05-25T08:51:22.550Z,57.67
2018-05-25T08:53:50.806Z,58.89
2018-05-25T08:56:19.237Z,58.12
2018-05-25T08:58:48.239Z,57.81
2018-05-25T09:01:16.541Z,60.30
2018-05-25T09:03:45.505Z,60.42
2018-05-25T09:06:13.765Z,61.79
2018-05-25T09:08:43.066Z,58.15
2018-05-25T09:11:12.091Z,60.88
2018-05-25T09:13:40.317Z,60.22
2018-05-25T09:16:08.580Z,58.61
2018-05-25T09:18:36.819Z,58.36
2018-05-25T09:21:05.062Z,58.32
2018-05-25T09:23:34.080Z,56.02
2018-05-25T09:26:02.322Z,55.08
2018-05-25T09:28:31.340Z,55.04
2018-05-25T09:30:59.662Z,56.37
2018-05-25T09:33:27.822Z,55.84
2018-05-25T09:35:56.064Z,54.42
2018-05-25T09:38:24.313Z,54.27
2018-05-25T09:40:53.337Z,54.21
2018-05-25T09:43:21.613Z,52.83
2018-05-25T09:45:49.819Z,51.63
2018-05-25T09:48:18.071Z,50.64
2018-05-25T09:50:46.315Z,49.87
2018-05-25T09:53:14.546Z,48.54
2018-05-25T09:55:42.801Z,51.35
2018-05-25T09:58:11.042Z,52.48
2018-05-25T10:00:40.049Z,48.99
2018-05-25T10:03:08.339Z,47.47
2018-05-25T10:05:37.313Z,51.07
2018-05-25T10:08:06.310Z,50.08
2018-05-25T10:10:34.586Z,51.06
2018-05-25T10:13:04.305Z,47.06
2018-05-25T10:15:32.882Z,48.29
2018-05-25T10:18:01.127Z,47.84
2018-05-25T10:20:29.366Z,46.78
2018-05-25T10:22:57.627Z,46.03
2018-05-25T10:25:25.871Z,46.50
2018-05-25T10:27:54.882Z,48.70
2018-05-25T10:30:23.130Z,44.19
2018-05-25T10:32:52.134Z,43.77
2018-05-25T10:35:21.155Z,44.12
2018-05-25T10:37:49.394Z,46.54
2018-05-25T10:40:18.611Z,46.32
2018-05-25T10:42:46.845Z,45.27
2018-05-25T10:45:15.082Z,46.77
2018-05-25T10:47:43.338Z,45.59
2018-05-25T10:50:12.338Z,50.20
2018-05-25T10:52:40.586Z,47.68
2018-05-25T10:55:09.130Z,47.31
2018-05-25T10:57:37.476Z,46.58
2018-05-25T11:00:05.711Z,43.94
2018-05-25T11:02:34.162Z,43.42
2018-05-25T11:05:02.402Z,42.96
2018-05-25T11:07:30.651Z,45.02
2018-05-25T11:09:59.702Z,43.40
2018-05-25T11:12:27.917Z,45.56
2018-05-25T11:14:56.917Z,45.86
2018-05-25T11:17:26.126Z,47.39
2018-05-25T11:19:55.127Z,46.25
2018-05-25T11:22:23.356Z,48.87
2018-05-25T11:24:51.808Z,50.46
2018-05-25T11:27:20.082Z,49.26
2018-05-25T11:29:49.068Z,51.60
2018-05-25T11:32:17.322Z,49.95
2018-05-25T11:34:46.318Z,45.69
2018-05-25T11:37:14.571Z,45.82
2018-05-25T11:39:43.574Z,48.31
2018-05-25T11:42:12.803Z,49.66
2018-05-25T11:44:41.032Z,51.13
2018-05-25T11:47:09.267Z,50.28
2018-05-25T11:49:37.511Z,54.14
2018-05-25T11:52:05.811Z,51.64
2018-05-25T11:54:34.047Z,47.45
2018-05-25T11:57:03.058Z,47.60
2018-05-25T11:59:31.318Z,47.53
2018-05-25T12:02:00.426Z,47.68
2018-05-25T12:04:28.670Z,47.97
2018-05-25T12:06:57.004Z,49.70
2018-05-25T12:09:25.226Z,47.23
2018-05-25T12:11:53.476Z,47.06
2018-05-25T12:14:21.709Z,48.68
2018-05-25T12:16:50.186Z,50.30
2018-05-25T12:19:18.435Z,50.85
2018-05-25T12:21:46.661Z,49.85
2018-05-25T12:24:14.921Z,51.31
2018-05-25T12:26:43.153Z,48.60
2018-05-25T12:29:12.190Z,50.73
2018-05-25T12:31:40.421Z,48.21
2018-05-25T12:34:08.685Z,45.90
2018-05-25T12:36:36.913Z,46.25
2018-05-25T12:39:05.167Z,46.58
2018-05-25T12:41:34.698Z,42.83
2018-05-25T12:44:02.988Z,45.19
2018-05-25T12:46:31.212Z,45.64
2018-05-25T12:48:59.454Z,46.68
2018-05-25T12:51:27.691Z,45.24
2018-05-25T12:53:55.941Z,45.59
2018-05-25T12:56:24.174Z,45.00
2018-05-25T12:58:52.427Z,47.44
2018-05-25T13:01:20.658Z,46.77
2018-05-25T13:03:48.905Z,43.72
2018-05-25T13:06:17.163Z,45.45
2018-05-25T13:08:45.393Z,43.70
2018-05-25T13:11:13.757Z,41.46
2018-05-25T13:13:42.001Z,40.25
2018-05-25T13:16:10.246Z,42.36
2018-05-25T13:18:38.502Z,44.75
2018-05-25T13:21:06.729Z,46.09
2018-05-25T13:23:34.985Z,44.42
2018-05-25T13:26:03.217Z,43.03
2018-05-25T13:28:31.462Z,42.18
2018-05-25T13:30:59.710Z,42.40
2018-05-25T13:33:27.951Z,44.22
2018-05-25T13:35:56.962Z,44.79
2018-05-25T13:38:29.141Z,45.39
2018-05-25T13:40:57.386Z,42.76
2018-05-25T13:43:25.660Z,41.67
2018-05-25T13:45:53.973Z,42.38
2018-05-25T13:48:22.198Z,42.27
2018-05-25T13:50:51.374Z,40.23
2018-05-25T13:53:19.814Z,42.29
2018-05-25T13:55:48.814Z,40.51
2018-05-25T13:58:17.058Z,41.81
2018-05-25T14:00:45.461Z,42.06
2018-05-25T14:03:14.462Z,45.17
2018-05-25T14:05:42.703Z,47.35
2018-05-25T14:08:10.951Z,45.46
2018-05-25T14:10:39.200Z,46.29
2018-05-25T14:13:07.440Z,47.89
2018-05-25T14:15:36.437Z,45.67
2018-05-25T14:18:05.445Z,42.94
2018-05-25T14:20:33.679Z,44.35
2018-05-25T14:23:02.186Z,44.02
2018-05-25T14:25:30.405Z,46.80
2018-05-25T14:27:58.654Z,44.94
2018-05-25T14:30:26.889Z,45.18
2018-05-25T14:32:55.146Z,44.95
2018-05-25T14:35:23.381Z,44.00
2018-05-25T14:37:51.636Z,46.02
2018-05-25T14:40:19.879Z,46.03
2018-05-25T14:42:48.138Z,46.65
2018-05-25T14:45:16.389Z,44.88
2018-05-25T14:47:45.650Z,45.75
2018-05-25T14:50:13.902Z,46.92
2018-05-25T14:52:42.149Z,47.97
2018-05-25T14:55:10.387Z,47.48
2018-05-25T14:57:38.623Z,48.52
2018-05-25T15:00:07.057Z,47.95
2018-05-25T15:02:36.067Z,50.75
2018-05-25T15:05:04.317Z,52.89
2018-05-25T15:07:33.354Z,54.44
2018-05-25T15:10:02.414Z,55.99
2018-05-25T15:12:31.422Z,55.68
2018-05-25T15:14:59.661Z,55.27
2018-05-25T15:17:27.898Z,54.22
2018-05-25T15:19:56.139Z,54.73
2018-05-25T15:22:24.376Z,55.18
2018-05-25T15:24:52.617Z,56.46
2018-05-25T15:27:21.171Z,57.35
2018-05-25T15:29:49.419Z,57.05
2018-05-25T15:32:17.642Z,57.53
2018-05-25T15:34:45.998Z,57.15
2018-05-25T15:37:15.005Z,58.41
2018-05-25T15:39:43.271Z,58.90
2018-05-25T15:42:11.523Z,58.69
2018-05-25T15:44:39.756Z,57.78
2018-05-25T15:47:08.006Z,57.67
2018-05-25T15:49:36.262Z,58.36
2018-05-25T15:52:05.351Z,58.16
2018-05-25T15:54:34.358Z,57.80
2018-05-25T15:57:02.604Z,58.26
2018-05-25T15:59:31.010Z,58.46
2018-05-25T16:02:00.028Z,57.68
2018-05-25T16:04:28.264Z,57.35
2018-05-25T16:06:56.510Z,57.05
2018-05-25T16:09:25.147Z,57.04
2018-05-25T16:11:53.451Z,56.67
2018-05-25T16:14:21.773Z,56.12
2018-05-25T16:16:50.786Z,56.69
2018-05-25T16:19:19.794Z,56.89
2018-05-25T16:21:48.043Z,55.94
2018-05-25T16:24:17.046Z,55.95
2018-05-25T16:26:46.061Z,56.26
2018-05-25T16:29:14.307Z,55.97
2018-05-25T16:31:43.313Z,55.43
2018-05-25T16:34:11.580Z,56.12
2018-05-25T16:36:40.570Z,55.25
2018-05-25T16:39:09.982Z,56.23
2018-05-25T16:41:38.981Z,54.84
2018-05-25T16:44:07.213Z,55.01
2018-05-25T16:46:35.630Z,54.91
2018-05-25T16:49:03.870Z,53.58
2018-05-25T16:51:32.107Z,54.02
2018-05-25T16:54:00.361Z,54.54
2018-05-25T16:56:28.591Z,55.19
2018-05-25T16:58:56.913Z,55.78
2018-05-25T17:01:25.108Z,55.89
2018-05-25T17:03:53.339Z,55.35
2018-05-25T17:06:21.574Z,56.32
2018-05-25T17:08:49.822Z,55.42
2018-05-25T17:11:18.072Z,56.12
2018-05-25T17:13:47.287Z,56.48
2018-05-25T17:16:15.539Z,57.28
2018-05-25T17:18:43.765Z,56.79
2018-05-25T17:21:12.027Z,55.88
2018-05-25T17:23:40.254Z,55.94
2018-05-25T17:26:08.497Z,57.03
2018-05-25T17:28:36.734Z,57.31
2018-05-25T17:31:05.752Z,56.27
2018-05-25T17:33:33.981Z,57.20
2018-05-25T17:36:02.279Z,57.88
2018-05-25T17:38:30.494Z,57.54
2018-05-25T17:40:58.829Z,58.15
2018-05-25T17:43:27.827Z,57.78
2018-05-25T17:45:56.087Z,57.91
2018-05-25T17:48:25.094Z,58.39
2018-05-25T17:50:54.116Z,58.97
2018-05-25T17:53:22.365Z,58.26
2018-05-25T17:55:51.383Z,58.10
2018-05-25T17:58:19.625Z,59.21
2018-05-25T18:00:48.617Z,58.62
2018-05-25T18:03:17.641Z,58.84
2018-05-25T18:05:45.898Z,59.14
2018-05-25T18:08:14.143Z,58.94
2018-05-25T18:10:43.151Z,59.64
2018-05-25T18:13:12.164Z,58.83
2018-05-25T18:15:40.393Z,58.64
2018-05-25T18:18:08.634Z,58.39
2018-05-25T18:20:36.879Z,59.51
2018-05-25T18:23:05.870Z,59.95
2018-05-25T18:25:34.896Z,59.98
2018-05-25T18:28:03.130Z,59.83
2018-05-25T18:30:32.138Z,60.07
2018-05-25T18:33:01.151Z,60.18
2018-05-25T18:35:29.594Z,61.23
2018-05-25T18:37:58.603Z,60.41
2018-05-25T18:40:27.605Z,61.18
2018-05-25T18:42:55.854Z,61.03
2018-05-25T18:45:24.936Z,61.93
2018-05-25T18:47:53.156Z,61.46
2018-05-25T18:50:21.397Z,61.40
2018-05-25T18:52:50.436Z,61.87
2018-05-25T18:55:18.675Z,62.05
2018-05-25T18:57:46.914Z,61.91
2018-05-25T19:00:15.157Z,61.60
2018-05-25T19:02:43.386Z,62.01
2018-05-25T19:05:11.635Z,62.34
2018-05-25T19:07:39.870Z,61.88
2018-05-25T19:10:08.139Z,62.58
2018-05-25T19:12:37.130Z,61.72
2018-05-25T19:15:06.147Z,62.04
2018-05-25T19:17:34.390Z,61.40
2018-05-25T19:20:03.407Z,61.72
2018-05-25T19:22:31.654Z,62.16
2018-05-25T19:25:00.658Z,62.44
2018-05-25T19:27:29.660Z,63.11
2018-05-25T19:29:57.915Z,63.26
2018-05-25T19:32:26.929Z,63.42
2018-05-25T19:34:55.917Z,63.89
2018-05-25T19:37:24.175Z,63.83
2018-05-25T19:39:52.422Z,64.26
2018-05-25T19:42:20.665Z,64.52
2018-05-25T19:44:48.914Z,63.90
2018-05-25T19:47:17.914Z,63.98
2018-05-25T19:49:47.314Z,63.63
2018-05-25T19:52:16.330Z,64.27
2018-05-25T19:54:44.568Z,63.66
2018-05-25T19:57:12.953Z,63.54
2018-05-25T19:59:41.954Z,63.52
2018-05-25T20:02:10.953Z,64.09
2018-05-25T20:04:39.957Z,64.05
2018-05-25T20:07:08.245Z,64.18
2018-05-25T20:09:37.343Z,64.41
2018-05-25T20:12:06.323Z,64.67
2018-05-25T20:14:34.575Z,65.03
2018-05-25T20:17:03.579Z,65.30
2018-05-25T20:19:32.595Z,65.59
2018-05-25T20:22:00.826Z,65.21
2018-05-25T20:24:29.835Z,65.23
2018-05-25T20:26:58.849Z,65.60
2018-05-25T20:29:27.120Z,66.04
2018-05-25T20:31:55.362Z,66.14
2018-05-25T20:34:23.633Z,66.07
2018-05-25T20:36:51.862Z,66.71
2018-05-25T20:39:20.098Z,66.63
2018-05-25T20:41:49.134Z,66.75
2018-05-25T20:44:17.382Z,66.79
2018-05-25T20:46:45.635Z,66.79
2018-05-25T20:49:13.885Z,67.14
2018-05-25T20:51:42.134Z,67.36
2018-05-25T20:54:10.382Z,67.37
2018-05-25T20:56:39.382Z,67.74
2018-05-25T20:59:07.629Z,67.68
2018-05-25T21:01:35.862Z,67.94
2018-05-25T21:04:04.099Z,67.73
2018-05-25T21:06:33.169Z,68.15
2018-05-25T21:09:01.423Z,68.55
2018-05-25T21:11:29.679Z,68.43
2018-05-25T21:13:57.915Z,68.41
2018-05-25T21:16:26.914Z,68.57
2018-05-25T21:18:55.936Z,68.87
2018-05-25T21:21:24.169Z,68.76
2018-05-25T21:23:52.410Z,69.35
2018-05-25T21:26:20.654Z,69.04
2018-05-25T21:28:48.882Z,69.67
2018-05-25T21:31:17.133Z,69.57
2018-05-25T21:33:45.382Z,69.83
2018-05-25T21:36:13.835Z,69.88
2018-05-25T21:38:42.839Z,69.85
2018-05-25T21:41:11.082Z,69.96
2018-05-25T21:43:39.798Z,69.86
2018-05-25T21:46:08.042Z,70.24
2018-05-25T21:48:36.275Z,70.43
2018-05-25T21:51:04.726Z,70.41
2018-05-25T21:53:33.730Z,70.41
2018-05-25T21:56:01.967Z,70.22
2018-05-25T21:58:30.214Z,70.25
2018-05-25T22:00:58.541Z,70.60
2018-05-25T22:03:27.553Z,70.72
2018-05-25T22:05:55.786Z,70.76
2018-05-25T22:08:24.018Z,70.50
2018-05-25T22:10:52.266Z,70.66
2018-05-25T22:13:21.286Z,70.79
2018-05-25T22:15:49.531Z,70.68
2018-05-25T22:18:18.541Z,70.87
2018-05-25T22:20:46.787Z,71.12
2018-05-25T22:23:15.041Z,71.37
2018-05-25T22:25:43.277Z,71.26
2018-05-25T22:28:11.729Z,71.17
2018-05-25T22:30:40.735Z,71.07
2018-05-25T22:33:08.962Z,71.53
2018-05-25T22:35:37.219Z,71.36
2018-05-25T22:38:05.468Z,71.37
2018-05-25T22:40:33.743Z,71.17
2018-05-25T22:43:19.765Z,71.18
2018-05-25T22:46:05.686Z,70.89
2018-05-25T22:48:51.962Z,71.15
2018-05-25T22:51:38.024Z,71.29
2018-05-25T22:54:11.297Z,71.49
2018-05-25T22:56:40.307Z,71.52
2018-05-25T22:59:08.546Z,71.18
2018-05-25T23:01:37.146Z,71.00
2018-05-25T23:04:06.168Z,70.73
2018-05-25T23:06:34.410Z,70.81
2018-05-25T23:09:03.414Z,71.54
2018-05-25T23:11:31.671Z,71.47
2018-05-25T23:13:59.903Z,71.73
2018-05-25T23:19:03.603Z,71.80
2018-05-25T23:21:31.839Z,71.94
2018-05-25T23:24:00.087Z,72.23
2018-05-25T23:26:28.514Z,72.01
2018-05-25T23:28:56.759Z,72.25
2018-05-25T23:31:24.990Z,71.97
2018-05-25T23:33:53.235Z,72.14
2018-05-25T23:36:22.242Z,72.10
2018-05-25T23:38:51.482Z,72.28
2018-05-25T23:41:19.706Z,72.08
2018-05-25T23:43:48.742Z,72.24
2018-05-25T23:46:16.969Z,72.16
2018-05-25T23:48:45.995Z,72.21
2018-05-25T23:51:14.227Z,72.50
2018-05-25T23:53:43.254Z,72.47
2018-05-25T23:56:11.486Z,72.64
2018-05-25T23:58:40.098Z,72.49
